Time;durP1;ratioP1;P1;durP2;ratioP2;P2;SDS_P1;SDS_P2;PMS_P1;PMS_P2;Temp;Humidity;BMP_temperature;BMP_pressure;BME280_temperature;BME280_humidity;BME280_pressure;Samples;Min_cycle;Max_cycle;Signal;HPM_P1;HPM_P2
2023/05/02 00:00:47;;;;;;;5.13;2.90;;;;;;;15.45;59.90;99524.03;4844896;29;20657;-93
2023/05/02 00:03:15;;;;;;;3.93;2.33;;;;;;;15.29;60.67;99537.41;4828609;29;20299;-93
2023/05/02 00:05:41;;;;;;;5.13;2.30;;;;;;;15.14;61.03;99533.13;4828600;29;20189;-93
2023/05/02 00:08:08;;;;;;;4.40;2.20;;;;;;;15.03;61.93;99540.88;4841087;29;20255;-92
2023/05/02 00:10:34;;;;;;;4.17;2.37;;;;;;;14.89;62.25;99538.25;4846923;29;20182;-94
2023/05/02 00:13:00;;;;;;;8.30;2.93;;;;;;;14.89;62.38;99542.69;4847006;29;20194;-92
2023/05/02 00:15:26;;;;;;;4.97;2.10;;;;;;;14.96;61.69;99534.31;4846014;29;20647;-93
2023/05/02 00:17:53;;;;;;;6.13;2.83;;;;;;;14.96;61.53;99536.94;4828364;29;20192;-93
2023/05/02 00:20:20;;;;;;;4.93;2.43;;;;;;;15.00;61.23;99535.78;4828450;29;20207;-93
2023/05/02 00:22:46;;;;;;;6.13;3.13;;;;;;;15.07;60.67;99537.09;4828158;29;20236;-93
2023/05/02 00:25:15;;;;;;;5.97;3.00;;;;;;;15.08;60.53;99538.78;4814047;29;20288;-92
2023/05/02 00:27:42;;;;;;;4.90;2.87;;;;;;;15.07;60.09;99537.09;4810207;29;20201;-92
2023/05/02 00:30:08;;;;;;;7.80;3.33;;;;;;;15.05;60.20;99544.25;4827913;29;20562;-93
2023/05/02 00:32:35;;;;;;;5.50;2.47;;;;;;;15.01;60.44;99541.91;4828319;29;20184;-92
2023/05/02 00:35:02;;;;;;;4.20;2.57;;;;;;;14.91;60.59;99546.91;4828027;29;20189;-92
2023/05/02 00:37:28;;;;;;;4.00;2.20;;;;;;;14.80;60.79;99548.56;4828031;29;20586;-92
2023/05/02 00:39:54;;;;;;;5.60;2.60;;;;;;;14.76;60.93;99550.53;4844271;29;20217;-92
2023/05/02 00:42:21;;;;;;;10.10;2.47;;;;;;;14.72;61.12;99551.69;4843235;29;20707;-93
2023/05/02 00:44:47;;;;;;;4.50;2.63;;;;;;;14.63;61.42;99549.63;4819597;29;20200;-92
2023/05/02 00:47:14;;;;;;;5.70;2.97;;;;;;;14.56;61.42;99550.94;4809138;29;20253;-92
2023/05/02 00:49:41;;;;;;;4.17;2.43;;;;;;;14.51;61.87;99551.25;4809598;29;20185;-95
2023/05/02 00:52:08;;;;;;;8.33;2.47;;;;;;;14.43;61.87;99550.88;4809551;29;20178;-95
2023/05/02 00:54:38;;;;;;;6.47;2.60;;;;;;;14.35;62.20;99553.13;4809758;29;20185;-95
2023/05/02 00:57:03;;;;;;;8.93;2.67;;;;;;;14.30;62.30;99554.31;4809572;29;20190;-93
2023/05/02 00:59:30;;;;;;;4.80;2.77;;;;;;;14.30;62.50;99555.16;4809952;29;20242;-93
2023/05/02 01:02:33;;;;;;;9.17;2.97;;;;;;;14.35;62.04;99558.41;4809480;29;20213;-92
2023/05/02 01:05:14;;;;;;;4.93;2.60;;;;;;;14.23;62.73;99559.09;4839835;29;20277;-95
2023/05/02 01:07:59;;;;;;;4.27;2.33;;;;;;;14.22;62.19;99554.78;4814114;29;20208;-95
2023/05/02 01:10:48;;;;;;;5.33;2.57;;;;;;;14.20;62.54;99555.81;4827887;29;20209;-95
2023/05/02 01:13:27;;;;;;;5.17;2.57;;;;;;;14.15;62.40;99559.56;4827602;29;20272;-95
2023/05/02 01:15:57;;;;;;;6.93;2.80;;;;;;;14.13;62.00;99557.97;4827525;29;20177;-95
2023/05/02 01:18:25;;;;;;;5.07;2.77;;;;;;;14.13;61.73;99558.81;4828281;29;20631;-94
2023/05/02 01:20:58;;;;;;;8.33;2.70;;;;;;;14.13;61.69;99563.22;4827392;29;20194;-94
2023/05/02 01:24:02;;;;;;;3.07;2.23;;;;;;;14.00;61.77;99562.28;4827548;29;20201;-95
2023/05/02 01:27:06;;;;;;;7.30;2.37;;;;;;;13.88;62.35;99563.00;4824270;29;20284;-95
2023/05/02 01:29:32;;;;;;;3.83;2.37;;;;;;;13.86;62.63;99557.81;4824416;29;20272;-94
2023/05/02 01:32:01;;;;;;;5.60;2.60;;;;;;;13.77;62.91;99555.75;4817529;29;20617;-94
2023/05/02 01:34:30;;;;;;;6.40;2.70;;;;;;;13.71;62.85;99563.13;4827355;29;20243;-94
2023/05/02 01:36:59;;;;;;;7.20;2.50;;;;;;;13.68;62.88;99564.16;4827301;29;20193;-95
2023/05/02 01:39:26;;;;;;;5.13;2.60;;;;;;;13.60;63.58;99576.94;4827030;29;20272;-94
2023/05/02 01:41:55;;;;;;;5.00;2.30;;;;;;;13.59;63.57;99572.63;4843285;29;20280;-94
2023/05/02 01:44:23;;;;;;;6.70;2.90;;;;;;;13.55;63.66;99573.72;4827147;29;20189;-94
2023/05/02 01:46:50;;;;;;;7.87;2.63;;;;;;;13.50;63.86;99571.34;4826772;29;20251;-94
2023/05/02 01:49:18;;;;;;;7.17;2.90;;;;;;;13.47;64.08;99570.66;4827270;29;20205;-94
2023/05/02 01:51:49;;;;;;;5.63;3.37;;;;;;;13.52;64.16;99560.75;4826778;29;20188;-94
2023/05/02 01:54:19;;;;;;;5.90;2.30;;;;;;;13.58;63.59;99565.63;4827678;29;20245;-95
2023/05/02 01:56:48;;;;;;;4.23;2.73;;;;;;;13.49;64.09;99567.00;4826995;29;20643;-94
2023/05/02 01:59:18;;;;;;;5.10;2.70;;;;;;;13.44;64.49;99568.25;4826885;29;20272;-95
2023/05/02 02:01:47;;;;;;;7.30;2.90;;;;;;;13.35;64.56;99563.47;4827188;29;20205;-93
2023/05/02 02:04:15;;;;;;;6.40;3.07;;;;;;;13.34;64.73;99559.13;4827067;29;20212;-93
2023/05/02 02:06:47;;;;;;;4.90;2.90;;;;;;;13.28;65.16;99564.78;4826865;29;20203;-93
2023/05/02 02:09:13;;;;;;;4.50;2.50;;;;;;;13.25;64.95;99563.16;4826959;29;20279;-94
2023/05/02 02:11:48;;;;;;;12.00;3.23;;;;;;;13.24;64.80;99557.97;4826916;29;20295;-94
2023/05/02 02:14:21;;;;;;;6.97;2.50;;;;;;;13.22;65.05;99552.81;4826792;29;20225;-92
2023/05/02 02:16:52;;;;;;;5.93;2.80;;;;;;;13.36;64.61;99557.28;4826661;29;20193;-93
2023/05/02 02:19:20;;;;;;;5.73;3.37;;;;;;;13.29;64.81;99553.28;4827018;29;20180;-93
2023/05/02 02:21:48;;;;;;;6.80;3.13;;;;;;;13.09;65.71;99553.56;4827347;29;20624;-93
2023/05/02 02:24:17;;;;;;;5.60;3.10;;;;;;;13.00;65.72;99556.72;4825105;29;20192;-92
2023/05/02 02:26:43;;;;;;;6.50;3.03;;;;;;;13.03;65.77;99556.50;4823572;29;20197;-93
2023/05/02 02:29:10;;;;;;;4.43;2.70;;;;;;;13.00;65.83;99557.53;4823597;29;20204;-93
2023/05/02 02:31:37;;;;;;;6.03;2.97;;;;;;;12.97;65.57;99556.88;4838836;29;20654;-93
2023/05/02 02:34:05;;;;;;;4.37;2.50;;;;;;;13.01;65.61;99558.38;4837958;29;20637;-93
2023/05/02 02:36:47;;;;;;;5.57;2.43;;;;;;;13.02;65.90;99560.09;4826552;29;20195;-94
2023/05/02 02:39:54;;;;;;;6.63;3.37;;;;;;;13.06;65.60;99561.59;4826696;29;20180;-93
2023/05/02 02:42:43;;;;;;;8.97;3.30;;;;;;;13.04;65.49;99559.06;4837366;29;20223;-93
2023/05/02 02:45:32;;;;;;;5.40;2.70;;;;;;;13.01;65.16;99556.59;4826682;29;20192;-93
2023/05/02 02:48:28;;;;;;;5.47;3.00;;;;;;;12.86;65.65;99565.34;4842396;29;20275;-94
2023/05/02 02:51:12;;;;;;;7.23;3.07;;;;;;;12.81;65.95;99562.97;4826540;29;20208;-93
2023/05/02 02:54:08;;;;;;;4.77;2.87;;;;;;;12.77;66.25;99569.34;4823854;29;20209;-93
2023/05/02 02:56:39;;;;;;;6.83;2.97;;;;;;;12.77;66.48;99556.19;4808198;29;20180;-93
2023/05/02 02:59:19;;;;;;;5.50;3.03;;;;;;;12.72;66.32;99570.50;4824539;29;20188;-93
2023/05/02 03:01:52;;;;;;;8.33;2.90;;;;;;;12.65;66.10;99566.53;4808231;29;20196;-93
2023/05/02 03:04:21;;;;;;;6.03;3.10;;;;;;;12.61;65.72;99573.72;4808506;29;20196;-93
2023/05/02 03:06:49;;;;;;;7.30;3.43;;;;;;;12.60;65.84;99579.06;4808122;29;20192;-94
2023/05/02 03:09:17;;;;;;;6.63;2.97;;;;;;;12.58;65.61;99581.78;4823683;29;20196;-94
2023/05/02 03:11:45;;;;;;;6.40;3.17;;;;;;;12.53;65.68;99578.53;4826553;29;20195;-93
2023/05/02 03:14:11;;;;;;;5.13;3.10;;;;;;;12.53;65.44;99577.69;4823327;29;20632;-94
2023/05/02 03:16:40;;;;;;;4.80;3.03;;;;;;;12.57;65.05;99584.50;4811251;29;20211;-94
2023/05/02 03:19:08;;;;;;;6.33;3.47;;;;;;;12.62;65.22;99580.69;4821250;29;20289;-94
2023/05/02 03:21:35;;;;;;;6.70;2.83;;;;;;;12.64;65.18;99581.44;4844237;29;20217;-94
2023/05/02 03:24:02;;;;;;;8.50;3.47;;;;;;;12.55;65.37;99587.19;4826958;29;20201;-94
2023/05/02 03:26:28;;;;;;;7.57;3.77;;;;;;;12.66;65.16;99584.84;4811221;29;20669;-94
2023/05/02 03:28:55;;;;;;;10.47;4.07;;;;;;;12.78;64.96;99589.47;4811277;29;20733;-94
2023/05/02 03:31:22;;;;;;;11.03;4.23;;;;;;;12.80;65.04;99592.00;4811310;29;20191;-94
2023/05/02 03:33:49;;;;;;;6.80;3.53;;;;;;;12.86;64.84;99589.03;4826266;29;20696;-94
2023/05/02 03:36:16;;;;;;;6.60;4.07;;;;;;;12.75;65.36;99594.88;4811146;29;20183;-94
2023/05/02 03:38:43;;;;;;;6.63;3.50;;;;;;;12.69;65.47;99602.25;4822230;29;20261;-94
2023/05/02 03:41:10;;;;;;;6.40;3.60;;;;;;;12.62;65.86;99598.25;4829167;29;20211;-94
2023/05/02 03:43:36;;;;;;;6.30;3.30;;;;;;;12.63;66.37;99610.47;4829116;29;20199;-93
2023/05/02 03:46:08;;;;;;;6.70;3.63;;;;;;;12.62;65.74;99604.38;4825029;29;20194;-94
2023/05/02 03:48:35;;;;;;;6.23;3.23;;;;;;;12.60;66.32;99610.63;4810750;29;20247;-94
2023/05/02 03:51:02;;;;;;;6.07;3.57;;;;;;;12.59;66.23;99615.03;4814160;29;20198;-94
2023/05/02 03:53:33;;;;;;;7.80;3.50;;;;;;;12.60;66.30;99623.78;4813680;29;20196;-94
2023/05/02 03:55:59;;;;;;;6.00;3.13;;;;;;;12.56;66.49;99632.75;4814218;29;20195;-94
2023/05/02 03:58:27;;;;;;;9.17;5.27;;;;;;;12.44;67.22;99641.28;4828926;29;20282;-94
2023/05/02 04:00:54;;;;;;;8.77;4.60;;;;;;;12.48;66.66;99637.56;4826722;29;20289;-94
2023/05/02 04:03:21;;;;;;;8.07;4.57;;;;;;;12.45;66.24;99638.56;4810678;29;20220;-94
2023/05/02 04:05:50;;;;;;;12.27;4.97;;;;;;;12.47;65.97;99642.00;4810812;29;20651;-95
2023/05/02 04:08:17;;;;;;;8.07;4.83;;;;;;;12.48;66.28;99646.31;4825811;29;20707;-95
2023/05/02 04:10:43;;;;;;;6.83;4.37;;;;;;;12.52;66.33;99644.38;4814638;29;20274;-93
2023/05/02 04:13:10;;;;;;;7.50;4.57;;;;;;;12.56;66.61;99646.75;4828707;29;20585;-94
2023/05/02 04:15:36;;;;;;;9.50;4.20;;;;;;;12.78;67.01;99642.06;4828890;29;20274;-94
2023/05/02 04:18:02;;;;;;;6.47;4.43;;;;;;;13.13;67.43;99647.25;4813555;29;20205;-94
2023/05/02 04:20:29;;;;;;;8.70;4.53;;;;;;;13.68;67.02;99645.81;4821110;29;20204;-95
2023/05/02 04:22:56;;;;;;;12.37;4.73;;;;;;;14.41;64.22;99642.41;4809770;29;20224;-94
2023/05/02 04:25:22;;;;;;;9.77;4.07;;;;;;;15.01;61.88;99636.97;4812178;29;20261;-94
2023/05/02 04:27:49;;;;;;;5.93;3.37;;;;;;;15.34;60.60;99640.97;4828413;29;20205;-94
2023/05/02 04:30:16;;;;;;;5.07;3.63;;;;;;;15.57;59.88;99636.00;4828331;29;20279;-95
2023/05/02 04:32:42;;;;;;;4.90;3.30;;;;;;;15.76;58.58;99632.06;4828350;29;20187;-94
2023/05/02 04:35:09;;;;;;;8.07;4.00;;;;;;;15.94;57.62;99637.94;4826269;29;20193;-94
2023/05/02 04:37:35;;;;;;;7.80;3.47;;;;;;;16.13;57.38;99635.75;4825125;29;20201;-95
2023/05/02 04:40:02;;;;;;;4.67;2.90;;;;;;;16.37;58.16;99626.16;4809948;29;20182;-93
2023/05/02 04:42:28;;;;;;;8.57;4.13;;;;;;;16.84;58.11;99624.69;4825003;29;20214;-93
2023/05/02 04:44:55;;;;;;;5.77;3.77;;;;;;;17.54;56.20;99625.81;4817279;29;20291;-94
2023/05/02 04:47:20;;;;;;;6.03;3.50;;;;;;;18.13;53.53;99622.19;4827825;29;20282;-94
2023/05/02 04:49:47;;;;;;;7.40;3.30;;;;;;;18.57;51.45;99621.50;4844080;29;20566;-94
2023/05/02 04:52:13;;;;;;;7.80;3.93;;;;;;;18.73;50.94;99624.66;4820385;29;20277;-94
2023/05/02 04:54:40;;;;;;;9.43;3.97;;;;;;;18.76;49.98;99627.03;4824936;29;20644;-94
2023/05/02 04:57:08;;;;;;;6.37;3.93;;;;;;;19.01;49.73;99637.44;4825953;29;20193;-94
2023/05/02 04:59:36;;;;;;;7.10;3.20;;;;;;;19.66;48.74;99633.97;4824757;29;20200;-93
2023/05/02 05:02:03;;;;;;;5.63;3.20;;;;;;;20.23;46.99;99626.50;4830268;29;20204;-93
2023/05/02 05:04:30;;;;;;;7.40;4.00;;;;;;;21.36;45.67;99615.69;4827882;29;20185;-94
2023/05/02 05:06:55;;;;;;;8.13;3.73;;;;;;;22.56;41.59;99617.97;4827646;29;20197;-95
2023/05/02 05:09:22;;;;;;;6.80;3.43;;;;;;;23.80;39.35;99617.38;4827829;29;20280;-93
2023/05/02 05:11:49;;;;;;;7.40;3.17;;;;;;;24.99;37.61;99614.97;4827630;29;20635;-93
2023/05/02 05:14:16;;;;;;;6.50;3.50;;;;;;;25.42;33.91;99607.75;4843965;29;20189;-94
2023/05/02 05:16:41;;;;;;;7.50;2.80;;;;;;;24.94;32.93;99613.78;4815027;29;20201;-93
2023/05/02 05:19:08;;;;;;;9.90;2.77;;;;;;;25.11;34.32;99620.03;4825392;29;20185;-92
2023/05/02 05:21:35;;;;;;;5.57;2.73;;;;;;;25.25;32.11;99616.75;4809216;29;20217;-94
2023/05/02 05:24:02;;;;;;;8.97;2.93;;;;;;;25.11;33.35;99625.41;4833389;29;20265;-93
2023/05/02 05:26:29;;;;;;;5.90;2.63;;;;;;;25.53;33.66;99623.56;4827207;29;20213;-93
2023/05/02 05:28:56;;;;;;;4.80;2.60;;;;;;;25.30;32.58;99614.41;4827463;29;20253;-93
2023/05/02 05:31:23;;;;;;;6.13;2.13;;;;;;;24.43;32.03;99628.84;4827261;29;20189;-94
2023/05/02 05:33:50;;;;;;;5.57;2.40;;;;;;;24.05;33.52;99636.34;4826785;29;20279;-93
2023/05/02 05:36:16;;;;;;;4.50;2.03;;;;;;;24.38;33.29;99630.28;4827247;29;20213;-93
2023/05/02 05:38:45;;;;;;;6.13;1.90;;;;;;;24.39;29.43;99630.16;4827065;29;20185;-95
2023/05/02 05:41:11;;;;;;;7.27;2.27;;;;;;;23.97;32.23;99633.59;4824697;29;20189;-94
2023/05/02 05:43:38;;;;;;;5.47;1.80;;;;;;;24.24;31.82;99631.69;4824035;29;20684;-95
2023/05/02 05:46:05;;;;;;;4.27;1.97;;;;;;;24.18;30.51;99636.84;4808921;29;20264;-94
2023/05/02 05:48:31;;;;;;;5.90;1.70;;;;;;;24.09;32.15;99637.75;4808851;29;20201;-94
2023/05/02 05:51:03;;;;;;;3.03;1.50;;;;;;;24.14;32.30;99643.50;4821733;29;20196;-92
2023/05/02 05:53:30;;;;;;;4.00;1.70;;;;;;;24.38;32.57;99649.91;4827165;29;20245;-93
2023/05/02 05:55:56;;;;;;;5.67;1.97;;;;;;;24.49;31.52;99640.78;4827088;29;20185;-94
2023/05/02 05:58:23;;;;;;;10.00;1.97;;;;;;;24.43;30.13;99641.38;4826852;29;20185;-94
2023/05/02 06:00:49;;;;;;;3.40;1.57;;;;;;;24.37;28.98;99655.44;4830155;29;20648;-94
2023/05/02 06:03:16;;;;;;;3.97;1.73;;;;;;;24.18;30.96;99652.91;4824107;29;20209;-94
2023/05/02 06:05:43;;;;;;;4.03;2.00;;;;;;;24.35;31.50;99650.22;4823839;29;20213;-93
2023/05/02 06:08:09;;;;;;;3.90;1.50;;;;;;;24.44;30.10;99649.28;4824677;29;20194;-93
2023/05/02 06:10:35;;;;;;;3.57;1.67;;;;;;;24.29;31.45;99653.50;4823922;29;20281;-94
2023/05/02 06:13:00;;;;;;;2.27;1.13;;;;;;;24.51;30.23;99654.84;4838874;29;20730;-96
2023/05/02 06:15:26;;;;;;;6.47;1.20;;;;;;;24.59;28.88;99652.22;4823904;29;20205;-95
2023/05/02 06:17:51;;;;;;;6.13;1.37;;;;;;;24.66;29.26;99653.28;4808620;29;20218;-93
2023/05/02 06:20:17;;;;;;;3.13;1.30;;;;;;;24.90;30.51;99655.31;4823823;29;20641;-94
2023/05/02 06:22:42;;;;;;;4.07;1.13;;;;;;;24.58;28.92;99650.53;4824072;29;20588;-94
2023/05/02 06:25:09;;;;;;;4.67;1.00;;;;;;;24.64;29.50;99651.75;4808619;29;20650;-94
2023/05/02 06:27:36;;;;;;;3.60;1.30;;;;;;;24.81;30.19;99656.28;4808528;29;20201;-95
2023/05/02 06:30:02;;;;;;;4.50;1.03;;;;;;;24.71;30.92;99653.63;4824078;29;20260;-94
2023/05/02 06:32:31;;;;;;;5.00;1.20;;;;;;;25.08;30.39;99655.25;4825836;29;20636;-95
2023/05/02 06:34:58;;;;;;;40.40;12.73;;;;;;;25.30;31.52;99649.31;4826614;29;20667;-95
2023/05/02 06:37:23;;;;;;;9.20;1.97;;;;;;;25.57;28.21;99649.94;4826214;29;20624;-95
2023/05/02 06:39:50;;;;;;;9.47;2.27;;;;;;;25.53;30.25;99645.06;4826512;29;20185;-93
2023/05/02 06:42:17;;;;;;;2.47;1.37;;;;;;;25.56;29.38;99658.16;4842028;29;20347;-94
2023/05/02 06:44:44;;;;;;;1.97;0.80;;;;;;;25.45;28.48;99647.66;4827849;29;20189;-93
2023/05/02 06:47:09;;;;;;;3.47;1.47;;;;;;;25.37;29.65;99659.22;4813009;29;20225;-94
2023/05/02 06:49:35;;;;;;;1.50;0.80;;;;;;;25.39;28.60;99654.53;4812255;29;20185;-94
2023/05/02 06:52:02;;;;;;;3.73;1.40;;;;;;;25.58;29.68;99654.31;4811786;29;20186;-94
2023/05/02 06:54:28;;;;;;;13.17;2.90;;;;;;;25.47;29.54;99659.16;4811831;29;20261;-94
2023/05/02 06:56:54;;;;;;;23.70;4.77;;;;;;;25.44;29.54;99659.44;4811835;29;20600;-93
2023/05/02 06:59:19;;;;;;;7.77;2.03;;;;;;;25.36;27.86;99667.44;4827191;29;20190;-93
2023/05/02 07:01:46;;;;;;;3.67;1.80;;;;;;;25.73;27.01;99657.22;4811487;29;20201;-94
2023/05/02 07:04:12;;;;;;;4.03;1.10;;;;;;;25.90;28.11;99663.44;4829604;29;20189;-96
2023/05/02 07:06:39;;;;;;;3.90;1.47;;;;;;;26.12;26.38;99661.00;4829620;29;20185;-96
2023/05/02 07:09:06;;;;;;;2.20;0.90;;;;;;;26.46;26.01;99652.78;4829629;29;20181;-94
2023/05/02 07:11:33;;;;;;;2.20;0.90;;;;;;;26.62;25.45;99662.66;4829475;29;20252;-94
2023/05/02 07:14:00;;;;;;;1.67;0.63;;;;;;;26.49;27.17;99663.19;4829521;29;20559;-94
2023/05/02 07:16:27;;;;;;;4.72;1.23;;;;;;;25.84;24.52;99664.94;4829366;29;20711;-94
2023/05/02 07:18:52;;;;;;;11.38;4.32;;;;;;;24.92;27.05;99664.06;4829365;29;20193;-94
2023/05/02 07:21:19;;;;;;;4.87;1.70;;;;;;;24.98;26.73;99668.75;4829967;29;20192;-94
2023/05/02 07:23:45;;;;;;;8.48;3.05;;;;;;;25.26;27.10;99656.00;4829271;29;20298;-95
2023/05/02 07:26:12;;;;;;;4.83;1.00;;;;;;;25.11;28.20;99657.59;4821333;29;20185;-94
2023/05/02 07:28:39;;;;;;;4.10;1.47;;;;;;;25.09;26.81;99667.66;4827080;29;20259;-94
2023/05/02 07:31:06;;;;;;;2.43;0.97;;;;;;;25.14;27.56;99666.16;4826225;29;20254;-95
2023/05/02 07:33:31;;;;;;;4.97;0.70;;;;;;;25.03;28.34;99666.44;4827941;29;20177;-94
2023/05/02 07:35:57;;;;;;;2.07;0.80;;;;;;;25.23;26.77;99659.00;4826653;29;20193;-96
2023/05/02 07:38:26;;;;;;;1.80;0.80;;;;;;;25.57;26.89;99658.00;4811230;29;20194;-95
2023/05/02 07:40:57;;;;;;;2.15;0.80;;;;;;;25.74;26.47;99661.56;4825832;29;20194;-95
2023/05/02 07:43:23;;;;;;;3.83;1.48;;;;;;;25.43;27.02;99657.75;4836043;29;20213;-95
2023/05/02 07:45:50;;;;;;;2.05;0.82;;;;;;;25.30;29.22;99660.88;4829105;29;20181;-93
2023/05/02 07:48:17;;;;;;;3.40;0.60;;;;;;;25.54;27.53;99662.84;4844196;29;20292;-94
2023/05/02 07:50:44;;;;;;;1.80;0.73;;;;;;;25.40;28.64;99666.13;4828971;29;20203;-94
2023/05/02 07:53:11;;;;;;;3.20;0.85;;;;;;;25.78;28.41;99659.41;4828734;29;20185;-94
2023/05/02 07:55:37;;;;;;;1.48;0.68;;;;;;;25.68;26.98;99661.38;4829072;29;20268;-95
2023/05/02 07:58:12;;;;;;;3.17;0.90;;;;;;;25.97;27.79;99651.03;4829305;29;20189;-96
2023/05/02 08:00:41;;;;;;;1.45;0.70;;;;;;;26.19;27.18;99663.84;4830862;29;20184;-95
2023/05/02 08:03:08;;;;;;;1.85;0.77;;;;;;;25.83;26.92;99655.22;4828888;29;20213;-95
2023/05/02 08:05:33;;;;;;;2.65;1.08;;;;;;;26.07;28.25;99654.41;4845346;29;20181;-94
2023/05/02 08:08:00;;;;;;;2.92;0.98;;;;;;;26.36;27.35;99656.63;4828479;29;20193;-94
2023/05/02 08:10:26;;;;;;;1.35;0.60;;;;;;;26.08;27.99;99654.22;4828477;29;20181;-95
2023/05/02 08:12:53;;;;;;;1.27;0.70;;;;;;;26.34;28.54;99654.09;4844681;29;20180;-96
2023/05/02 08:15:20;;;;;;;4.28;0.63;;;;;;;25.63;26.72;99660.00;4829422;29;20196;-94
2023/05/02 08:17:46;;;;;;;1.38;0.50;;;;;;;25.05;28.96;99659.09;4828797;29;20711;-94
2023/05/02 08:20:14;;;;;;;2.50;0.63;;;;;;;25.47;27.65;99651.09;4828621;29;20181;-96
2023/05/02 08:22:41;;;;;;;6.80;1.60;;;;;;;25.51;26.40;99642.53;4843740;29;20201;-95
2023/05/02 08:25:08;;;;;;;5.40;1.40;;;;;;;25.01;28.75;99647.00;4844435;29;20185;-95
2023/05/02 08:27:35;;;;;;;10.30;2.60;;;;;;;24.91;28.68;99643.59;4828122;29;20189;-94
2023/05/02 08:30:00;;;;;;;1.90;0.75;;;;;;;25.26;28.28;99642.59;4844314;29;20177;-94
2023/05/02 08:32:26;;;;;;;1.40;0.60;;;;;;;25.31;28.13;99637.56;4828395;29;20174;-94
2023/05/02 08:34:55;;;;;;;2.07;0.57;;;;;;;24.79;27.46;99643.00;4828295;29;20560;-94
2023/05/02 08:37:22;;;;;;;1.33;0.70;;;;;;;24.42;27.48;99643.22;4828303;29;20185;-94
2023/05/02 08:39:49;;;;;;;3.10;0.57;;;;;;;24.18;28.61;99644.88;4828017;29;20185;-95
2023/05/02 08:42:16;;;;;;;2.73;0.80;;;;;;;24.08;29.39;99641.41;4828449;29;20553;-94
2023/05/02 08:44:42;;;;;;;1.63;0.52;;;;;;;24.70;29.47;99632.34;4827923;29;20193;-94
2023/05/02 08:47:12;;;;;;;4.03;0.75;;;;;;;24.98;27.58;99626.69;4844023;29;20233;-93
2023/05/02 08:49:40;;;;;;;1.20;0.63;;;;;;;25.06;26.41;99631.25;4844155;29;20743;-94
2023/05/02 08:52:08;;;;;;;6.38;1.25;;;;;;;24.91;27.58;99628.34;4828272;29;20181;-95
2023/05/02 08:54:36;;;;;;;5.90;1.42;;;;;;;24.48;27.71;99633.72;4828137;29;20260;-92
2023/05/02 08:57:03;;;;;;;1.30;0.63;;;;;;;25.22;27.63;99633.16;4843723;29;20265;-92
2023/05/02 08:59:30;;;;;;;1.48;0.52;;;;;;;;;;4827568;29;20695;-94
2023/05/02 09:02:09;;;;;;;3.13;0.60;;;;;;;24.90;25.53;99626.66;4828770;29;20660;-93
2023/05/02 09:04:41;;;;;;;1.57;0.50;;;;;;;24.97;26.05;99630.34;4815699;29;20195;-93
2023/05/02 09:07:09;;;;;;;2.33;0.60;;;;;;;24.59;24.14;99629.94;4824119;29;20188;-93
2023/05/02 09:09:36;;;;;;;1.92;0.65;;;;;;;24.69;25.11;99620.78;4839805;29;20265;-93
2023/05/02 09:12:02;;;;;;;2.05;0.70;;;;;;;24.83;25.22;99611.34;4825359;29;20170;-93
2023/05/02 09:14:29;;;;;;;4.13;0.70;;;;;;;24.85;27.79;99607.50;4843035;29;20212;-95
2023/05/02 09:17:00;;;;;;;1.97;0.80;;;;;;;24.73;25.80;99608.78;4827465;29;20217;-93
2023/05/02 09:19:26;;;;;;;3.53;0.90;;;;;;;25.14;26.69;99604.47;4827332;29;20184;-92
2023/05/02 09:22:00;;;;;;;1.30;0.57;;;;;;;25.16;26.84;99601.63;4828953;29;20266;-93
2023/05/02 09:24:28;;;;;;;2.03;0.70;;;;;;;24.60;25.40;99608.34;4839447;29;20170;-93
2023/05/02 09:27:01;;;;;;;1.33;0.57;;;;;;;24.57;27.49;99600.63;4825147;29;20173;-92
2023/05/02 09:29:36;;;;;;;2.63;0.82;;;;;;;24.67;26.17;99597.81;4839172;29;20261;-93
2023/05/02 09:32:04;;;;;;;1.03;0.43;;;;;;;24.59;25.63;99584.38;4824392;29;20615;-94
2023/05/02 09:34:32;;;;;;;2.10;0.80;;;;;;;24.98;28.38;99577.56;4824439;29;20244;-92
2023/05/02 09:37:00;;;;;;;3.03;0.80;;;;;;;25.53;27.04;99583.31;4824888;29;20174;-92
2023/05/02 09:39:28;;;;;;;3.20;0.70;;;;;;;25.19;24.21;99591.41;4825141;29;20717;-94
2023/05/02 09:41:54;;;;;;;1.08;0.40;;;;;;;25.57;24.78;99574.78;4830469;29;20288;-93
2023/05/02 09:44:22;;;;;;;1.70;0.52;;;;;;;24.91;25.24;99577.38;4842974;29;20185;-92
2023/05/02 09:46:55;;;;;;;1.50;0.57;;;;;;;25.08;26.35;99578.25;4827019;29;20345;-93
2023/05/02 09:49:44;;;;;;;1.35;0.65;;;;;;;25.11;25.85;99572.59;4826715;29;20649;-92
2023/05/02 09:52:15;;;;;;;1.38;0.40;;;;;;;24.98;25.64;99573.03;4843270;29;20636;-93
2023/05/02 09:54:42;;;;;;;1.25;0.50;;;;;;;25.16;25.95;99569.44;4842890;29;20295;-94
2023/05/02 09:57:09;;;;;;;2.90;0.52;;;;;;;25.51;25.34;99563.84;4826815;29;20200;-95
2023/05/02 09:59:36;;;;;;;3.05;0.82;;;;;;;25.61;25.25;99569.91;4827037;29;20292;-93
2023/05/02 10:02:06;;;;;;;2.47;0.65;;;;;;;25.10;24.38;99565.56;4826803;29;20205;-92
2023/05/02 10:04:33;;;;;;;4.30;0.70;;;;;;;25.10;25.64;99554.81;4843369;29;20529;-93
2023/05/02 10:07:01;;;;;;;1.83;0.52;;;;;;;25.65;26.06;99560.53;4826779;29;20180;-95
2023/05/02 10:09:33;;;;;;;3.90;1.02;;;;;;;25.57;25.23;99555.13;4841950;29;20606;-94
2023/05/02 10:12:06;;;;;;;7.13;0.50;;;;;;;25.46;26.01;99561.66;4832923;29;20620;-96
2023/05/02 10:14:38;;;;;;;2.78;0.73;;;;;;;25.56;27.17;99567.72;4816460;29;20280;-95
2023/05/02 10:17:20;;;;;;;1.10;0.35;;;;;;;25.93;26.45;99553.81;4834202;29;20213;-94
2023/05/02 10:20:00;;;;;;;5.97;1.10;;;;;;;26.39;27.04;99549.59;4845336;29;20285;-95
2023/05/02 10:22:26;;;;;;;0.90;0.35;;;;;;;26.26;23.25;99548.47;4830315;29;20200;-94
2023/05/02 10:24:52;;;;;;;3.05;0.82;;;;;;;26.52;24.53;99544.50;4823666;29;20280;-94
2023/05/02 10:27:20;;;;;;;0.80;0.40;;;;;;;25.51;24.30;99542.38;4812908;29;20268;-95
2023/05/02 10:29:46;;;;;;;1.92;0.70;;;;;;;25.65;25.37;99549.78;4813427;29;20178;-95
2023/05/02 10:32:18;;;;;;;1.63;0.60;;;;;;;25.84;25.84;99538.69;4818836;29;20191;-94
2023/05/02 10:34:45;;;;;;;1.10;0.30;;;;;;;25.46;24.06;99540.19;4830743;29;20264;-96
2023/05/02 10:37:12;;;;;;;1.83;0.55;;;;;;;25.67;26.00;99544.22;4831578;29;20185;-96
2023/05/02 10:39:38;;;;;;;0.70;0.43;;;;;;;26.04;25.35;99533.84;4833167;29;20272;-96
2023/05/02 10:42:06;;;;;;;3.65;1.27;;;;;;;25.52;24.10;99544.06;4847385;29;20205;-96
2023/05/02 10:44:37;;;;;;;1.05;0.50;;;;;;;25.90;23.71;99532.66;4846273;29;20181;-94
2023/05/02 10:47:25;;;;;;;1.23;0.50;;;;;;;25.83;23.66;99539.72;4847188;29;20189;-95
2023/05/02 10:49:56;;;;;;;1.45;0.40;;;;;;;26.11;25.68;99530.28;4847231;29;20201;-94
2023/05/02 10:52:37;;;;;;;1.17;0.65;;;;;;;26.20;25.06;99537.34;4831446;29;20169;-94
2023/05/02 10:55:22;;;;;;;2.35;0.43;;;;;;;26.06;23.24;99535.34;4832193;29;20185;-95
2023/05/02 10:58:00;;;;;;;1.75;0.80;;;;;;;26.82;26.00;99524.97;4846773;29;20173;-95
2023/05/02 11:00:28;;;;;;;1.27;0.30;;;;;;;26.80;24.20;99529.69;4844657;29;20192;-96
2023/05/02 11:02:55;;;;;;;1.00;0.30;;;;;;;26.48;24.10;99531.59;4813555;29;20637;-95
2023/05/02 11:05:26;;;;;;;2.92;0.50;;;;;;;26.75;24.76;99526.66;4811794;29;20186;-95
2023/05/02 11:08:19;;;;;;;1.25;0.50;;;;;;;27.09;23.15;99530.91;4811870;29;20582;-95
2023/05/02 11:10:46;;;;;;;1.35;0.57;;;;;;;26.35;24.47;99536.66;4812068;29;20658;-95
2023/05/02 11:13:12;;;;;;;3.08;0.43;;;;;;;25.95;25.71;99537.50;4827752;29;20267;-94
2023/05/02 11:15:40;;;;;;;1.52;0.52;;;;;;;26.38;24.57;99536.34;4811844;29;20373;-95
2023/05/02 11:18:13;;;;;;;1.48;0.60;;;;;;;26.75;23.46;99532.03;4826761;29;20740;-96
2023/05/02 11:20:44;;;;;;;2.70;0.70;;;;;;;26.62;23.56;99533.59;4826913;29;20193;-95
2023/05/02 11:23:21;;;;;;;2.45;0.50;;;;;;;26.48;23.29;99535.13;4811912;29;20584;-95
2023/05/02 11:25:59;;;;;;;0.80;0.38;;;;;;;26.21;22.78;99524.75;4826590;29;20209;-94
2023/05/02 11:28:46;;;;;;;1.45;0.30;;;;;;;26.15;24.25;99530.84;4842063;29;20723;-95
2023/05/02 11:31:30;;;;;;;1.17;0.40;;;;;;;25.53;24.48;99526.94;4845457;29;20181;-95
2023/05/02 11:34:02;;;;;;;1.08;0.30;;;;;;;25.51;24.35;99526.25;4829922;29;20193;-96
2023/05/02 11:36:31;;;;;;;5.93;0.70;;;;;;;26.08;24.82;99519.03;4829762;29;20196;-96
2023/05/02 11:38:58;;;;;;;2.33;0.60;;;;;;;25.66;23.44;99524.59;4829312;29;20240;-93
2023/05/02 11:41:38;;;;;;;0.85;0.35;;;;;;;25.43;24.57;99513.63;4829185;29;20229;-94
2023/05/02 11:44:05;;;;;;;1.35;0.47;;;;;;;25.00;25.39;99525.44;4845371;29;20193;-96